createdAt,value
2023-05-13T00:01:38.852Z,100805.88
2023-05-13T00:04:08.811Z,100807.63
2023-05-13T00:06:36.454Z,100814.78
2023-05-13T00:09:04.503Z,100813.81
2023-05-13T00:11:32.310Z,100807.84
2023-05-13T00:13:59.782Z,100804.00
2023-05-13T00:16:28.847Z,100819.03
2023-05-13T00:18:56.488Z,100819.84
2023-05-13T00:21:23.975Z,100813.72
2023-05-13T00:23:51.488Z,100814.53
2023-05-13T00:26:18.861Z,100811.06
2023-05-13T00:28:49.141Z,100805.28
2023-05-13T00:31:16.845Z,100802.41
2023-05-13T00:33:45.062Z,100815.72
2023-05-13T00:36:12.595Z,100809.78
2023-05-13T00:38:44.105Z,100814.31
2023-05-13T00:41:12.176Z,100813.19
2023-05-13T00:43:39.593Z,100816.13
2023-05-13T00:46:07.420Z,100801.06
2023-05-13T00:48:34.851Z,100811.63
2023-05-13T00:51:02.447Z,100798.97
2023-05-13T00:53:32.558Z,100813.03
2023-05-13T00:56:00.375Z,100819.88
2023-05-13T00:58:27.711Z,100817.25
2023-05-13T01:01:09.478Z,100809.34
2023-05-13T01:03:46.379Z,100819.72
2023-05-13T01:06:36.655Z,100821.34
2023-05-13T01:09:18.559Z,100820.75
2023-05-13T01:11:49.461Z,100822.34
2023-05-13T01:14:27.625Z,100811.97
2023-05-13T01:17:07.065Z,100830.28
2023-05-13T01:19:49.741Z,100817.72
2023-05-13T01:22:17.623Z,100796.25
2023-05-13T01:24:45.956Z,100816.56
2023-05-13T01:27:14.398Z,100810.88
2023-05-13T01:29:42.218Z,100799.97
2023-05-13T01:32:11.270Z,100811.56
2023-05-13T01:34:40.855Z,100811.16
2023-05-13T01:37:08.606Z,100801.81
2023-05-13T01:39:39.574Z,100804.38
2023-05-13T01:42:12.469Z,100805.03
2023-05-13T01:44:40.890Z,100796.03
2023-05-13T01:47:08.252Z,100815.38
2023-05-13T01:49:36.067Z,100802.72
2023-05-13T01:52:04.414Z,100812.41
2023-05-13T01:54:32.520Z,100804.78
2023-05-13T01:57:05.670Z,100811.94
2023-05-13T01:59:33.188Z,100804.34
2023-05-13T02:02:00.818Z,100797.59
2023-05-13T02:04:28.484Z,100805.84
2023-05-13T02:06:56.615Z,100815.31
2023-05-13T02:09:24.368Z,100806.63
2023-05-13T02:11:51.968Z,100804.78
2023-05-13T02:14:19.459Z,100801.19
2023-05-13T02:16:46.912Z,100793.28
2023-05-13T02:19:14.348Z,100792.53
2023-05-13T02:21:43.696Z,100797.63
2023-05-13T02:24:11.324Z,100813.72
2023-05-13T02:26:38.724Z,100795.59
2023-05-13T02:29:06.308Z,100785.16
2023-05-13T02:31:34.119Z,100791.16
2023-05-13T02:34:03.622Z,100786.94
2023-05-13T02:36:31.184Z,100805.72
2023-05-13T02:38:58.925Z,100788.31
2023-05-13T02:41:26.355Z,100791.16
2023-05-13T02:43:54.212Z,100798.19
2023-05-13T02:46:22.117Z,100789.00
2023-05-13T02:48:49.524Z,100799.19
2023-05-13T02:51:16.946Z,100797.75
2023-05-13T02:53:44.376Z,100796.81
2023-05-13T02:56:12.258Z,100798.38
2023-05-13T02:58:39.695Z,100793.09
2023-05-13T03:01:08.511Z,100794.34
2023-05-13T03:03:36.171Z,100797.06
2023-05-13T03:06:03.700Z,100800.81
2023-05-13T03:08:31.399Z,100794.25
2023-05-13T03:10:59.145Z,100794.31
2023-05-13T03:13:26.522Z,100799.59
2023-05-13T03:15:53.922Z,100796.53
2023-05-13T03:18:21.420Z,100785.22
2023-05-13T03:20:49.133Z,100797.66
2023-05-13T03:23:16.573Z,100806.34
2023-05-13T03:25:45.963Z,100813.19
2023-05-13T03:28:13.378Z,100785.97
2023-05-13T03:30:44.162Z,100806.41
2023-05-13T03:33:16.063Z,100797.81
2023-05-13T03:35:44.081Z,100795.84
2023-05-13T03:38:11.417Z,100810.00
2023-05-13T03:40:43.914Z,100789.63
2023-05-13T03:43:11.407Z,100808.28
2023-05-13T03:45:41.821Z,100808.38
2023-05-13T03:48:15.440Z,100790.66
2023-05-13T03:50:43.169Z,100813.50
2023-05-13T03:53:11.514Z,100813.50
2023-05-13T03:55:39.910Z,100815.22
2023-05-13T03:58:15.623Z,100816.88
2023-05-13T04:00:46.682Z,100840.81
2023-05-13T04:03:18.983Z,100817.75
2023-05-13T04:05:46.979Z,100827.31
2023-05-13T04:08:15.113Z,100832.00
2023-05-13T04:10:44.097Z,100835.56
2023-05-13T04:13:11.657Z,100831.06
2023-05-13T04:15:39.104Z,100819.91
2023-05-13T04:18:06.680Z,100833.25
2023-05-13T04:20:38.061Z,100856.41
2023-05-13T04:23:05.995Z,100846.56
2023-05-13T04:25:35.191Z,100853.41
2023-05-13T04:28:02.999Z,100862.41
2023-05-13T04:30:35.852Z,100864.03
2023-05-13T04:33:03.651Z,100862.41
2023-05-13T04:35:31.787Z,100866.66
2023-05-13T04:38:01.945Z,100869.44
2023-05-13T04:40:30.746Z,100880.88
2023-05-13T04:43:02.311Z,100870.19
2023-05-13T04:45:33.795Z,100878.78
2023-05-13T04:48:01.864Z,100878.19
2023-05-13T04:50:29.964Z,100882.06
2023-05-13T04:52:58.229Z,100875.00
2023-05-13T04:55:27.555Z,100884.28
2023-05-13T04:57:56.298Z,100880.00
2023-05-13T05:00:24.293Z,100899.16
2023-05-13T05:02:52.441Z,100887.50
2023-05-13T05:05:20.419Z,100907.75
2023-05-13T05:07:47.784Z,100915.94
2023-05-13T05:10:15.721Z,100905.59
2023-05-13T05:12:48.774Z,100915.41
2023-05-13T05:15:16.255Z,100910.06
2023-05-13T05:17:47.202Z,100925.53
2023-05-13T05:20:15.050Z,100926.34
2023-05-13T05:22:43.383Z,100921.66
2023-05-13T05:25:12.700Z,100914.72
2023-05-13T05:27:40.194Z,100926.94
2023-05-13T05:30:10.261Z,100927.53
2023-05-13T05:32:39.085Z,100929.34
2023-05-13T05:35:07.875Z,100928.94
2023-05-13T05:37:35.507Z,100934.97
2023-05-13T05:40:07.039Z,100935.97
2023-05-13T05:42:38.087Z,100949.13
2023-05-13T05:45:06.161Z,100941.88
2023-05-13T05:47:33.549Z,100943.53
2023-05-13T05:50:01.360Z,100947.06
2023-05-13T05:52:28.784Z,100950.38
2023-05-13T05:54:56.290Z,100956.47
2023-05-13T05:57:23.686Z,100946.53
2023-05-13T05:59:51.284Z,100951.69
2023-05-13T06:02:18.671Z,100955.34
2023-05-13T06:04:46.283Z,100958.03
2023-05-13T06:07:14.165Z,100956.78
2023-05-13T06:09:42.447Z,100964.50
2023-05-13T06:12:10.922Z,100966.00
2023-05-13T06:14:38.493Z,100959.72
2023-05-13T06:17:05.844Z,100965.09
2023-05-13T06:19:33.267Z,100964.59
2023-05-13T06:22:03.277Z,100960.50
2023-05-13T06:24:31.326Z,100974.19
2023-05-13T06:26:58.685Z,100963.72
2023-05-13T06:29:26.284Z,100948.72
2023-05-13T06:31:54.226Z,100960.72
2023-05-13T06:34:21.828Z,100973.88
2023-05-13T06:36:49.598Z,100960.59
2023-05-13T06:39:17.491Z,100961.25
2023-05-13T06:41:45.673Z,100958.59
2023-05-13T06:44:28.722Z,100954.38
2023-05-13T06:46:56.408Z,100957.94
2023-05-13T06:49:26.508Z,100962.09
2023-05-13T06:51:54.753Z,100958.69
2023-05-13T06:54:22.153Z,100961.47
2023-05-13T06:56:49.999Z,100949.38
2023-05-13T06:59:17.607Z,100960.81
2023-05-13T07:01:44.994Z,100967.41
2023-05-13T07:04:12.638Z,100950.44
2023-05-13T07:06:40.320Z,100958.81
2023-05-13T07:09:09.740Z,100955.25
2023-05-13T07:11:37.526Z,100963.09
2023-05-13T07:14:04.941Z,100954.25
2023-05-13T07:16:32.396Z,100945.69
2023-05-13T07:19:00.510Z,100962.41
2023-05-13T07:21:27.941Z,100956.13
2023-05-13T07:23:58.542Z,100958.66
2023-05-13T07:26:26.125Z,100952.44
2023-05-13T07:28:53.799Z,100963.69
2023-05-13T07:31:21.334Z,100954.78
2023-05-13T07:33:48.985Z,100951.75
2023-05-13T07:36:25.623Z,100962.91
2023-05-13T07:38:53.686Z,100957.81
2023-05-13T07:41:21.566Z,100969.03
2023-05-13T07:43:49.440Z,100965.13
2023-05-13T07:46:16.923Z,100963.81
2023-05-13T07:48:44.549Z,100963.03
2023-05-13T07:51:18.480Z,100958.16
2023-05-13T07:53:47.113Z,100952.50
2023-05-13T07:56:14.632Z,100951.84
2023-05-13T07:58:42.067Z,100949.75
2023-05-13T08:01:09.468Z,100949.22
2023-05-13T08:03:37.173Z,100949.75
2023-05-13T08:06:04.899Z,100955.56
2023-05-13T08:08:32.674Z,100953.75
2023-05-13T08:11:00.203Z,100956.22
2023-05-13T08:13:27.660Z,100951.84
2023-05-13T08:16:02.264Z,100956.88
2023-05-13T08:18:30.658Z,100944.09
2023-05-13T08:20:58.287Z,100952.72
2023-05-13T08:23:40.371Z,100942.91
2023-05-13T08:26:12.094Z,100940.31
2023-05-13T08:28:39.902Z,100952.41
2023-05-13T08:31:07.387Z,100941.00
2023-05-13T08:33:36.909Z,100946.28
2023-05-13T08:36:04.727Z,100950.03
2023-05-13T08:38:33.576Z,100937.16
2023-05-13T08:41:10.198Z,100947.94
2023-05-13T08:43:39.123Z,100937.97
2023-05-13T08:46:10.292Z,100950.41
2023-05-13T08:48:41.956Z,100935.53
2023-05-13T08:51:09.863Z,100939.19
2023-05-13T08:53:39.627Z,100939.84
2023-05-13T08:56:09.833Z,100921.66
2023-05-13T08:58:44.571Z,100939.91
2023-05-13T09:01:15.151Z,100922.97
2023-05-13T09:04:01.506Z,100928.72
2023-05-13T09:06:29.695Z,100921.41
2023-05-13T09:08:57.706Z,100938.41
2023-05-13T09:11:28.866Z,100919.19
2023-05-13T09:14:00.537Z,100927.81
2023-05-13T09:16:28.329Z,100918.84
2023-05-13T09:19:08.551Z,100914.59
2023-05-13T09:21:36.378Z,100905.13
2023-05-13T09:24:13.274Z,100913.53
2023-05-13T09:26:42.291Z,100919.09
2023-05-13T09:29:21.395Z,100907.81
2023-05-13T09:31:56.227Z,100921.38
2023-05-13T09:34:29.198Z,100927.91
2023-05-13T09:37:07.113Z,100911.19
2023-05-13T09:39:41.377Z,100927.53
2023-05-13T09:42:19.019Z,100922.00
2023-05-13T09:44:47.000Z,100907.59
2023-05-13T09:47:15.615Z,100920.16
2023-05-13T09:49:45.130Z,100906.41
2023-05-13T09:52:17.007Z,100914.53
2023-05-13T09:54:47.520Z,100891.84
2023-05-13T09:57:23.816Z,100911.47
2023-05-13T09:59:59.855Z,100906.06
2023-05-13T10:02:29.043Z,100910.78
2023-05-13T10:04:57.107Z,100909.66
2023-05-13T10:07:25.886Z,100901.97
2023-05-13T10:09:58.302Z,100897.88
2023-05-13T10:12:28.931Z,100901.41
2023-05-13T10:15:02.028Z,100916.94
2023-05-13T10:17:30.983Z,100901.19
2023-05-13T10:20:01.828Z,100907.03
2023-05-13T10:22:31.971Z,100896.09
2023-05-13T10:25:00.817Z,100911.22
2023-05-13T10:27:33.166Z,100903.09
2023-05-13T10:30:09.635Z,100914.56
2023-05-13T10:32:42.272Z,100903.31
2023-05-13T10:35:43.154Z,100901.28
2023-05-13T10:38:53.863Z,100891.59
2023-05-13T10:42:24.621Z,100885.50
2023-05-13T10:45:07.437Z,100874.63
2023-05-13T10:47:36.197Z,100876.41
2023-05-13T10:50:24.280Z,100873.38
2023-05-13T10:52:59.160Z,100869.38
2023-05-13T10:55:30.186Z,100870.16
2023-05-13T10:58:16.047Z,100859.81
2023-05-13T11:00:45.494Z,100873.66
2023-05-13T11:03:21.861Z,100865.97
2023-05-13T11:06:18.720Z,100856.06
2023-05-13T11:08:52.508Z,100862.25
2023-05-13T11:11:20.919Z,100860.44
2023-05-13T11:14:02.296Z,100856.75
2023-05-13T11:16:33.324Z,100856.63
2023-05-13T11:19:04.636Z,100854.94
2023-05-13T11:21:41.579Z,100857.44
2023-05-13T11:24:17.614Z,100851.13
2023-05-13T11:26:59.150Z,100850.34
2023-05-13T11:29:37.030Z,100833.91
2023-05-13T11:32:07.029Z,100840.69
2023-05-13T11:34:34.796Z,100822.28
2023-05-13T11:37:04.868Z,100829.72
2023-05-13T11:39:33.302Z,100833.75
2023-05-13T11:42:01.968Z,100840.28
2023-05-13T11:44:29.498Z,100830.50
2023-05-13T11:47:01.707Z,100831.31
2023-05-13T11:49:42.743Z,100834.28
2023-05-13T11:52:18.190Z,100825.66
2023-05-13T11:54:48.545Z,100827.75
2023-05-13T11:57:26.130Z,100828.69
2023-05-13T12:00:06.890Z,100828.09
2023-05-13T12:02:40.506Z,100822.94
2023-05-13T12:05:13.575Z,100827.81
2023-05-13T12:07:43.725Z,100825.03
2023-05-13T12:10:11.923Z,100821.03
2023-05-13T12:12:43.621Z,100810.31
2023-05-13T12:15:15.987Z,100813.72
2023-05-13T12:17:44.039Z,100801.19
2023-05-13T12:20:16.853Z,100811.19
2023-05-13T12:22:44.194Z,100797.81
2023-05-13T12:25:33.053Z,100795.97
2023-05-13T12:28:24.768Z,100801.84
2023-05-13T12:30:56.349Z,100779.16
2023-05-13T12:33:30.015Z,100777.81
2023-05-13T12:36:21.218Z,100777.59
2023-05-13T12:39:01.548Z,100782.81
2023-05-13T12:41:35.047Z,100785.22
2023-05-13T12:44:11.192Z,100792.75
2023-05-13T12:46:39.801Z,100787.00
2023-05-13T12:49:12.069Z,100804.09
2023-05-13T12:51:39.492Z,100798.38
2023-05-13T12:54:06.961Z,100798.28
2023-05-13T12:56:36.961Z,100808.69
2023-05-13T12:59:04.365Z,100794.53
2023-05-13T13:01:32.206Z,100799.84
2023-05-13T13:03:59.896Z,100790.94
2023-05-13T13:06:31.047Z,100783.38
2023-05-13T13:08:58.449Z,100798.72
2023-05-13T13:11:27.939Z,100799.97
2023-05-13T13:13:55.344Z,100803.66
2023-05-13T13:16:23.277Z,100793.63
2023-05-13T13:18:53.439Z,100793.38
2023-05-13T13:21:25.357Z,100793.56
2023-05-13T13:23:52.758Z,100790.38
2023-05-13T13:26:20.128Z,100793.09
2023-05-13T13:28:47.532Z,100776.00
2023-05-13T13:31:14.995Z,100780.34
2023-05-13T13:33:42.359Z,100775.81
2023-05-13T13:36:09.790Z,100769.25
2023-05-13T13:38:37.152Z,100780.53
2023-05-13T13:41:04.539Z,100789.91
2023-05-13T13:43:34.557Z,100783.22
2023-05-13T13:46:02.193Z,100780.84
2023-05-13T13:48:29.685Z,100780.22
2023-05-13T13:50:58.569Z,100783.22
2023-05-13T13:53:25.953Z,100771.72
2023-05-13T13:55:53.405Z,100769.13
2023-05-13T13:58:20.834Z,100761.13
2023-05-13T14:00:51.893Z,100779.56
2023-05-13T14:03:19.569Z,100779.41
2023-05-13T14:05:47.075Z,100779.56
2023-05-13T14:08:20.199Z,100768.97
2023-05-13T14:10:47.876Z,100773.75
2023-05-13T14:13:15.422Z,100765.50
2023-05-13T14:15:42.929Z,100765.91
2023-05-13T14:18:12.964Z,100758.84
2023-05-13T14:20:42.884Z,100761.84
2023-05-13T14:23:10.306Z,100776.59
2023-05-13T14:25:46.546Z,100773.53
2023-05-13T14:28:17.639Z,100763.50
2023-05-13T14:30:45.102Z,100757.16
2023-05-13T14:33:14.800Z,100765.19
2023-05-13T14:35:42.153Z,100758.41
2023-05-13T14:38:09.833Z,100758.69
2023-05-13T14:40:38.886Z,100751.31
2023-05-13T14:43:06.255Z,100760.91
2023-05-13T14:45:35.814Z,100765.19
2023-05-13T14:48:03.403Z,100765.13
2023-05-13T14:50:33.485Z,100773.88
2023-05-13T14:53:00.899Z,100775.59
2023-05-13T14:55:31.163Z,100771.47
2023-05-13T14:57:58.593Z,100772.59
2023-05-13T15:00:26.464Z,100775.59
2023-05-13T15:02:54.325Z,100769.63
2023-05-13T15:05:21.889Z,100787.28
2023-05-13T15:07:52.414Z,100786.53
2023-05-13T15:10:19.917Z,100797.59
2023-05-13T15:12:47.436Z,100797.34
2023-05-13T15:15:14.839Z,100804.50
2023-05-13T15:17:59.966Z,100796.59
2023-05-13T15:20:28.607Z,100801.25
2023-05-13T15:22:57.804Z,100812.69
2023-05-13T15:25:27.419Z,100811.38
2023-05-13T15:27:54.808Z,100817.13
2023-05-13T15:30:22.630Z,100803.22
2023-05-13T15:32:50.470Z,100824.75
2023-05-13T15:35:17.975Z,100834.25
2023-05-13T15:37:45.415Z,100833.28
2023-05-13T15:40:12.985Z,100836.38
2023-05-13T15:42:41.189Z,100846.25
2023-05-13T15:45:08.927Z,100844.34
2023-05-13T15:47:37.597Z,100844.28
2023-05-13T15:50:06.072Z,100832.34
2023-05-13T15:52:33.551Z,100824.91
2023-05-13T15:55:00.975Z,100827.31
2023-05-13T15:57:28.393Z,100829.63
2023-05-13T15:59:55.752Z,100828.53
2023-05-13T16:02:23.080Z,100837.06
2023-05-13T16:04:53.610Z,100835.91
2023-05-13T16:07:21.067Z,100830.59
2023-05-13T16:09:50.815Z,100851.66
2023-05-13T16:12:18.221Z,100847.22
2023-05-13T16:14:45.691Z,100843.75
2023-05-13T16:17:18.349Z,100839.94
2023-05-13T16:19:45.830Z,100830.19
2023-05-13T16:22:34.149Z,100827.56
2023-05-13T16:25:03.932Z,100827.59
2023-05-13T16:27:32.470Z,100827.50
2023-05-13T16:30:01.197Z,100833.13
2023-05-13T16:32:29.493Z,100825.97
2023-05-13T16:35:01.352Z,100822.56
2023-05-13T16:37:29.765Z,100815.69
2023-05-13T16:39:57.575Z,100819.88
2023-05-13T16:42:27.584Z,100804.19
2023-05-13T16:44:54.978Z,100810.34
2023-05-13T16:47:22.640Z,100800.41
2023-05-13T16:49:50.278Z,100793.19
2023-05-13T16:52:17.654Z,100802.97
2023-05-13T16:54:45.157Z,100793.88
2023-05-13T16:57:20.003Z,100792.13
2023-05-13T16:59:47.351Z,100791.13
2023-05-13T17:02:17.759Z,100784.09
2023-05-13T17:04:45.255Z,100773.75
2023-05-13T17:07:12.578Z,100778.38
2023-05-13T17:09:42.386Z,100776.63
2023-05-13T17:12:09.760Z,100758.66
2023-05-13T17:14:37.195Z,100766.56
2023-05-13T17:17:05.084Z,100762.06
2023-05-13T17:19:32.801Z,100763.00
2023-05-13T17:22:00.566Z,100761.34
2023-05-13T17:24:31.728Z,100759.47
2023-05-13T17:26:59.316Z,100764.75
2023-05-13T17:29:26.687Z,100760.19
2023-05-13T17:31:54.280Z,100746.88
2023-05-13T17:34:21.665Z,100747.81
2023-05-13T17:36:50.212Z,100747.94
2023-05-13T17:39:17.833Z,100752.63
2023-05-13T17:41:46.062Z,100751.69
2023-05-13T17:44:13.482Z,100746.22
2023-05-13T17:46:43.669Z,100748.75
2023-05-13T17:49:11.313Z,100756.00
2023-05-13T17:51:38.916Z,100762.94
2023-05-13T17:54:06.336Z,100759.25
2023-05-13T17:56:33.717Z,100759.41
2023-05-13T17:59:03.280Z,100765.94
2023-05-13T18:01:30.869Z,100774.09
2023-05-13T18:03:58.286Z,100774.94
2023-05-13T18:06:28.034Z,100779.09
2023-05-13T18:08:55.584Z,100780.84
2023-05-13T18:11:22.935Z,100786.22
2023-05-13T18:13:50.320Z,100789.97
2023-05-13T18:16:19.260Z,100803.22
2023-05-13T18:18:48.710Z,100807.78
2023-05-13T18:21:16.188Z,100814.28
2023-05-13T18:23:46.610Z,100807.34
2023-05-13T18:26:14.062Z,100803.47
2023-05-13T18:28:42.459Z,100804.31
2023-05-13T18:31:12.182Z,100803.97
2023-05-13T18:33:39.653Z,100804.34
2023-05-13T18:36:08.730Z,100795.69
2023-05-13T18:38:37.333Z,100798.59
2023-05-13T18:41:05.105Z,100802.06
2023-05-13T18:43:32.559Z,100803.16
2023-05-13T18:46:02.637Z,100807.91
2023-05-13T18:48:30.110Z,100819.31
2023-05-13T18:50:57.455Z,100822.66
2023-05-13T18:53:24.938Z,100812.47
2023-05-13T18:55:57.988Z,100817.81
2023-05-13T18:58:26.738Z,100823.00
2023-05-13T19:00:54.146Z,100838.88
2023-05-13T19:03:24.009Z,100826.84
2023-05-13T19:05:52.172Z,100840.31
2023-05-13T19:08:25.105Z,100846.03
2023-05-13T19:10:52.549Z,100842.38
2023-05-13T19:13:22.211Z,100838.88
2023-05-13T19:15:49.594Z,100845.31
2023-05-13T19:18:17.149Z,100855.19
2023-05-13T19:20:46.392Z,100855.97
2023-05-13T19:23:14.512Z,100860.75
2023-05-13T19:25:45.118Z,100860.06
2023-05-13T19:28:20.552Z,100871.28
2023-05-13T19:30:47.965Z,100869.94
2023-05-13T19:33:15.396Z,100887.44
2023-05-13T19:35:45.669Z,100890.31
2023-05-13T19:38:15.607Z,100886.88
2023-05-13T19:40:45.401Z,100883.69
2023-05-13T19:43:13.148Z,100878.50
2023-05-13T19:45:40.610Z,100887.81
2023-05-13T19:48:10.172Z,100890.31
2023-05-13T19:50:37.625Z,100885.81
2023-05-13T19:53:05.091Z,100888.72
2023-05-13T19:55:32.489Z,100888.38
2023-05-13T19:57:59.890Z,100891.47
2023-05-13T20:00:27.297Z,100887.00
2023-05-13T20:02:57.437Z,100894.00
2023-05-13T20:05:24.858Z,100899.78
2023-05-13T20:07:52.233Z,100896.34
2023-05-13T20:10:19.701Z,100897.84
2023-05-13T20:12:47.235Z,100899.88
2023-05-13T20:15:16.601Z,100887.50
2023-05-13T20:17:45.465Z,100888.22
2023-05-13T20:20:13.042Z,100895.38
2023-05-13T20:22:40.394Z,100905.06
2023-05-13T20:25:08.141Z,100898.19
2023-05-13T20:27:35.559Z,100897.94
2023-05-13T20:30:03.189Z,100904.31
2023-05-13T20:32:31.515Z,100888.47
2023-05-13T20:34:58.885Z,100894.72
2023-05-13T20:37:26.222Z,100888.00
2023-05-13T20:39:54.053Z,100882.94
2023-05-13T20:42:22.625Z,100888.28
2023-05-13T20:44:51.578Z,100884.88
2023-05-13T20:47:20.642Z,100882.44
2023-05-13T20:49:48.055Z,100885.75
2023-05-13T20:52:15.515Z,100886.63
2023-05-13T20:54:42.863Z,100882.25
2023-05-13T20:57:10.235Z,100882.31
2023-05-13T20:59:37.871Z,100879.66
2023-05-13T21:02:05.379Z,100882.34
2023-05-13T21:04:32.749Z,100874.38
2023-05-13T21:07:00.162Z,100871.91
2023-05-13T21:09:27.472Z,100875.59
2023-05-13T21:11:54.813Z,100857.06
2023-05-13T21:14:22.250Z,100863.22
2023-05-13T21:16:49.614Z,100858.38
2023-05-13T21:19:21.957Z,100859.25
2023-05-13T21:21:49.745Z,100868.00
2023-05-13T21:24:18.714Z,100862.94
2023-05-13T21:26:46.843Z,100851.66
2023-05-13T21:29:14.198Z,100863.13
2023-05-13T21:31:41.718Z,100855.91
2023-05-13T21:34:09.153Z,100854.16
2023-05-13T21:36:38.963Z,100857.56
2023-05-13T21:39:07.740Z,100847.66
2023-05-13T21:41:35.867Z,100858.28
2023-05-13T21:44:03.463Z,100847.47
2023-05-13T21:46:30.819Z,100845.13
2023-05-13T21:49:01.804Z,100838.78
2023-05-13T21:51:29.275Z,100845.88
2023-05-13T21:53:56.636Z,100854.31
2023-05-13T21:56:24.076Z,100843.22
2023-05-13T21:58:51.423Z,100848.78
2023-05-13T22:01:18.907Z,100851.66
2023-05-13T22:03:46.402Z,100848.78
2023-05-13T22:06:14.269Z,100840.84
2023-05-13T22:08:41.590Z,100847.22
2023-05-13T22:11:08.933Z,100837.38
2023-05-13T22:13:36.379Z,100831.31
2023-05-13T22:16:04.304Z,100826.22
2023-05-13T22:18:31.808Z,100822.47
2023-05-13T22:21:00.773Z,100830.63
2023-05-13T22:23:28.097Z,100814.88
2023-05-13T22:25:55.631Z,100823.91
2023-05-13T22:28:23.134Z,100820.06
2023-05-13T22:30:51.740Z,100814.06
2023-05-13T22:33:19.201Z,100804.34
2023-05-13T22:35:47.245Z,100813.50
2023-05-13T22:38:14.723Z,100810.00
2023-05-13T22:40:42.311Z,100804.59
2023-05-13T22:43:09.641Z,100803.78
2023-05-13T22:45:37.792Z,100791.38
2023-05-13T22:48:05.432Z,100792.06
2023-05-13T22:50:32.859Z,100795.47
2023-05-13T22:53:00.252Z,100798.94
2023-05-13T22:55:27.693Z,100784.91
2023-05-13T22:57:55.014Z,100788.38
2023-05-13T23:00:22.722Z,100801.03
2023-05-13T23:02:50.365Z,100780.09
2023-05-13T23:05:17.787Z,100788.34
2023-05-13T23:07:45.131Z,100769.03
2023-05-13T23:10:12.451Z,100762.66
2023-05-13T23:12:39.867Z,100769.41
2023-05-13T23:15:08.376Z,100765.66
2023-05-13T23:17:36.041Z,100751.41
2023-05-13T23:20:03.716Z,100753.06
2023-05-13T23:22:31.576Z,100762.16
2023-05-13T23:24:58.948Z,100741.19
2023-05-13T23:27:26.287Z,100748.69
2023-05-13T23:29:53.637Z,100744.16
2023-05-13T23:32:21.050Z,100742.47
2023-05-13T23:34:48.432Z,100729.19
2023-05-13T23:37:15.835Z,100731.56
2023-05-13T23:39:43.651Z,100732.38
2023-05-13T23:42:11.456Z,100732.28
2023-05-13T23:44:39.209Z,100723.44
2023-05-13T23:47:06.617Z,100720.00
2023-05-13T23:49:33.946Z,100720.13
2023-05-13T23:52:01.284Z,100718.19
2023-05-13T23:54:28.634Z,100709.19
2023-05-13T23:56:56.010Z,100715.06
2023-05-13T23:59:23.375Z,100706.53
